Погода Быстрикина 2 недели

Витебская область, Белоруссия

22 мая-04 июня
  • 22мая
    Сегодня
    +12°
    +24°
    Пасмурно, дожди с грозами
    ВремяПогодаТемператураВлажностьДавлениеВетер, м/сВероятность осадков
    00:00Облачно с прояснениями+14°C88 %754 мм1.3 м/с2 %
    03:00Небольшая облачность+12°C86 %754 мм1.3 м/с2 %
    06:00Ясно и безоблачно+12°C77 %754 мм1.5 м/с2 %
    09:00Ясно и безоблачно+18°C66 %755 мм2.1 м/с2 %
    12:00Ясно и безоблачно+23°C56 %755 мм2.6 м/с2 %
    15:00Пасмурно, дожди с грозами+24°C52 %754 мм2.4 м/с20 %
    18:00Облачно с прояснениями, ливень+23°C74 %755 мм2.2 м/с48 %
    21:00Практически безоблачно+19°C84 %755 мм1.5 м/с6 %
  • 23мая
    Четверг
    +12°
    +25°
    Практически безоблачно
    ВремяПогодаТемператураВлажностьДавлениеВетер, м/сВероятность осадков
    00:00Практически безоблачно+15°C91 %755 мм1.3 м/с2 %
    03:00Ясно и безоблачно+13°C89 %756 мм1.4 м/с1 %
    06:00Ясно и безоблачно+13°C67 %757 мм1.8 м/с1 %
    09:00Ясно и безоблачно+18°C59 %758 мм2.8 м/с2 %
    12:00Ясно и безоблачно+22°C52 %758 мм3.2 м/с4 %
    15:00Практически безоблачно+23°C45 %758 мм3.3 м/с11 %
    18:00Ясно и безоблачно+25°C45 %757 мм3.5 м/с12 %
    21:00Ясно и безоблачно+20°C57 %758 мм2.0 м/с2 %
  • 24мая
    Пятница
    +10°
    +25°
    Ясно и безоблачно
    ВремяПогодаТемператураВлажностьДавлениеВетер, м/сВероятность осадков
    00:00Ясно и безоблачно+16°C61 %759 мм1.8 м/с2 %
    03:00Ясно и безоблачно+13°C62 %760 мм1.8 м/с2 %
    06:00Ясно и безоблачно+12°C66 %761 мм1.9 м/с2 %
    09:00Ясно и безоблачно+18°C58 %761 мм2.9 м/с2 %
    12:00Ясно и безоблачно+22°C50 %761 мм3.0 м/с2 %
    15:00Ясно и безоблачно+24°C47 %761 мм3.0 м/с3 %
    18:00Ясно и безоблачно+24°C47 %760 мм3.0 м/с3 %
    21:00Ясно и безоблачно+19°C60 %760 мм1.6 м/с3 %
  • 25мая
    Суббота
    +10°
    +26°
    Практически безоблачно
    ВремяПогодаТемператураВлажностьДавлениеВетер, м/сВероятность осадков
    00:00Ясно и безоблачно+14°C65 %760 мм1.4 м/с2 %
    03:00Ясно и безоблачно+12°C73 %760 мм1.1 м/с2 %
    06:00Ясно и безоблачно+12°C76 %760 мм1.3 м/с2 %
    09:00Ясно и безоблачно+18°C66 %760 мм1.9 м/с2 %
    12:00Ясно и безоблачно+22°C52 %760 мм2.4 м/с2 %
    15:00Практически безоблачно+24°C45 %759 мм2.2 м/с7 %
    18:00Практически безоблачно+26°C45 %758 мм1.9 м/с14 %
    21:00Ясно и безоблачно+20°C66 %757 мм1.1 м/с7 %
  • 26мая
    Воскресенье
    +12°
    +26°
    Ясно и безоблачно
    ВремяПогодаТемператураВлажностьДавлениеВетер, м/сВероятность осадков
    00:00Ясно и безоблачно+14°C82 %757 мм0.8 м/с2 %
    03:00Ясно и безоблачно+12°C89 %758 мм0.7 м/с6 %
    06:00Ясно и безоблачно+13°C87 %758 мм0.7 м/с8 %
    09:00Ясно и безоблачно+19°C66 %758 мм1.0 м/с6 %
    12:00Ясно и безоблачно+23°C44 %758 мм1.4 м/с17 %
    15:00Ясно и безоблачно+25°C41 %758 мм1.3 м/с23 %
    18:00Практически безоблачно+26°C43 %757 мм1.3 м/с22 %
    21:00Небольшая облачность+21°C57 %757 мм0.8 м/с10 %
Мы используем cookies
Соглашаюсь